Dai2kousei — JD2542 — position and weather

sailwx.info

Track history (hours):
 
Tides and Currents Weather Stations Pressure Air Temp Water Temp Dewpoint Dewpoint Depression Visibility Wind Speed Wind Dir Waves Ship Positions

Dai2kousei

Last reported at 2014-Sep-16 10:32 UTC. Time now 2014-Sep-22 22:14 UTC.
Position N 34°56' E 139°45'.

Length 77 m; draft 4 m.

MMSI: 431000467.

Date/timePositionNaut miles runAvg speedWind from/ knotsBaromVisibWave heightAir tempDewpointWater temp
2014-Sep-16 10:32N 34°56' E 139°45'1010.4
2014-Sep-16 09:33N 35°06' E 139°44'1111.0
2014-Sep-16 08:34N 35°17' E 139°45'9 9.4
2014-Sep-16 07:34N 35°26' E 139°45'5 4.7
2014-Sep-16 06:33N 35°31' E 139°45'0 0.0
2014-Sep-16 05:34N 35°31' E 139°45'0 0.0
2014-Sep-16 04:34N 35°31' E 139°45'0 0.0
2014-Sep-16 03:34N 35°31' E 139°45'0 0.0
2014-Sep-16 02:34N 35°31' E 139°45'0 0.0
2014-Sep-16 01:34N 35°31' E 139°45'0 0.0
2014-Sep-16 00:34N 35°31' E 139°45'0 0.0
2014-Sep-15 23:34N 35°31' E 139°45'0 0.0
2014-Sep-15 22:33N 35°31' E 139°45'3 3.4
2014-Sep-15 21:34N 35°29' E 139°48'0 0.0
2014-Sep-15 20:34N 35°29' E 139°48'0 0.0
2014-Sep-15 19:33N 35°29' E 139°48'0 0.0
2014-Sep-15 18:33N 35°29' E 139°48'0 0.0
2014-Sep-15 17:34N 35°29' E 139°48'0 0.0
2014-Sep-15 16:34N 35°29' E 139°48'0 0.0
2014-Sep-15 15:34N 35°29' E 139°48'0 0.1
2014-Sep-15 14:34N 35°29' E 139°48'0 0.1
2014-Sep-15 13:34N 35°29' E 139°48'0 0.0
2014-Sep-15 12:34N 35°29' E 139°48'0 0.0
2014-Sep-15 11:34N 35°29' E 139°48'1 0.7
2014-Sep-15 10:34N 35°28' E 139°49'7 7.1
2014-Sep-15 09:33N 35°22' E 139°53'0 0.0
2014-Sep-15 08:34N 35°22' E 139°53'0 0.0
2014-Sep-15 07:34N 35°22' E 139°53'0 0.0
2014-Sep-15 06:34N 35°22' E 139°53'0 0.0
2014-Sep-15 05:33N 35°22' E 139°53'0 0.0
2014-Sep-15 04:33N 35°22' E 139°53'0 0.0
2014-Sep-15 03:33N 35°22' E 139°53'0 0.0
2014-Sep-15 02:34N 35°22' E 139°53'0 0.0
2014-Sep-15 01:34N 35°22' E 139°53'0 0.0
2014-Sep-15 00:33N 35°22' E 139°53'0 0.0
2014-Sep-14 23:34N 35°22' E 139°53'0 0.0
2014-Sep-14 22:34N 35°22' E 139°53'0 0.0
2014-Sep-14 21:34N 35°22' E 139°53'2 1.6
2014-Sep-14 20:33N 35°23' E 139°51'1 1.3
2014-Sep-14 19:33N 35°24' E 139°50'0 0.0
2014-Sep-14 18:34N 35°24' E 139°50'0 0.0
2014-Sep-14 17:34N 35°24' E 139°50'1 0.6
2014-Sep-14 16:34N 35°24' E 139°49'8 8.1
2014-Sep-14 15:34N 35°16' E 139°46'1010.0
2014-Sep-14 14:32N 35°06' E 139°45'  
2014-Sep-09 04:18N 34°34' E 134°51'6 8.2
2014-Sep-09 03:33N 34°37' E 134°57'7 7.2
2014-Sep-09 02:33N 34°34' E 135°05'2211.0
2014-Sep-09 00:33N 34°12' E 134°60'  
Track history (hours):
 
Tides and Currents Weather Stations Pressure Air Temp Water Temp Dewpoint Dewpoint Depression Visibility Wind Speed Wind Dir Waves Ship Positions

Dai2kousei

Last reported at 2014-Sep-16 10:32 UTC. Time now 2014-Sep-22 22:14 UTC.
Position N 34°56' E 139°45'.

Length 77 m; draft 4 m.

MMSI: 431000467.

Date/timePositionNaut miles runAvg speedWind from/ knotsBaromVisibWave heightAir tempDewpointWater temp
2014-Sep-16 10:32N 34°56' E 139°45'1010.4
2014-Sep-16 09:33N 35°06' E 139°44'1111.0
2014-Sep-16 08:34N 35°17' E 139°45'9 9.4
2014-Sep-16 07:34N 35°26' E 139°45'5 4.7
2014-Sep-16 06:33N 35°31' E 139°45'0 0.0
2014-Sep-16 05:34N 35°31' E 139°45'0 0.0
2014-Sep-16 04:34N 35°31' E 139°45'0 0.0
2014-Sep-16 03:34N 35°31' E 139°45'0 0.0
2014-Sep-16 02:34N 35°31' E 139°45'0 0.0
2014-Sep-16 01:34N 35°31' E 139°45'0 0.0
2014-Sep-16 00:34N 35°31' E 139°45'0 0.0
2014-Sep-15 23:34N 35°31' E 139°45'0 0.0
2014-Sep-15 22:33N 35°31' E 139°45'3 3.4
2014-Sep-15 21:34N 35°29' E 139°48'0 0.0
2014-Sep-15 20:34N 35°29' E 139°48'0 0.0
2014-Sep-15 19:33N 35°29' E 139°48'0 0.0
2014-Sep-15 18:33N 35°29' E 139°48'0 0.0
2014-Sep-15 17:34N 35°29' E 139°48'0 0.0
2014-Sep-15 16:34N 35°29' E 139°48'0 0.0
2014-Sep-15 15:34N 35°29' E 139°48'0 0.1
2014-Sep-15 14:34N 35°29' E 139°48'0 0.1
2014-Sep-15 13:34N 35°29' E 139°48'0 0.0
2014-Sep-15 12:34N 35°29' E 139°48'0 0.0
2014-Sep-15 11:34N 35°29' E 139°48'1 0.7
2014-Sep-15 10:34N 35°28' E 139°49'7 7.1
2014-Sep-15 09:33N 35°22' E 139°53'0 0.0
2014-Sep-15 08:34N 35°22' E 139°53'0 0.0
2014-Sep-15 07:34N 35°22' E 139°53'0 0.0
2014-Sep-15 06:34N 35°22' E 139°53'0 0.0
2014-Sep-15 05:33N 35°22' E 139°53'0 0.0
2014-Sep-15 04:33N 35°22' E 139°53'0 0.0
2014-Sep-15 03:33N 35°22' E 139°53'0 0.0
2014-Sep-15 02:34N 35°22' E 139°53'0 0.0
2014-Sep-15 01:34N 35°22' E 139°53'0 0.0
2014-Sep-15 00:33N 35°22' E 139°53'0 0.0
2014-Sep-14 23:34N 35°22' E 139°53'0 0.0
2014-Sep-14 22:34N 35°22' E 139°53'0 0.0
2014-Sep-14 21:34N 35°22' E 139°53'2 1.6
2014-Sep-14 20:33N 35°23' E 139°51'1 1.3
2014-Sep-14 19:33N 35°24' E 139°50'0 0.0
2014-Sep-14 18:34N 35°24' E 139°50'0 0.0
2014-Sep-14 17:34N 35°24' E 139°50'1 0.6
2014-Sep-14 16:34N 35°24' E 139°49'8 8.1
2014-Sep-14 15:34N 35°16' E 139°46'1010.0
2014-Sep-14 14:32N 35°06' E 139°45'  
2014-Sep-09 04:18N 34°34' E 134°51'6 8.2
2014-Sep-09 03:33N 34°37' E 134°57'7 7.2
2014-Sep-09 02:33N 34°34' E 135°05'2211.0
2014-Sep-09 00:33N 34°12' E 134°60'  

Dump ship's entire track history